Time;durP1;ratioP1;P1;durP2;ratioP2;P2;SDS_P1;SDS_P2;PMS_P1;PMS_P2;Temp;Humidity;BMP_temperature;BMP_pressure;BME280_temperature;BME280_humidity;BME280_pressure;Samples;Min_cycle;Max_cycle;Signal;HPM_P1;HPM_P2
2024/03/10 00:02:22;;;;;;;4.33;3.77;;;12.10;99.90;;;;;;5077250;28;20634;-37
2024/03/10 00:04:48;;;;;;;4.80;4.20;;;12.10;99.90;;;;;;5078112;28;20185;-40
2024/03/10 00:07:13;;;;;;;6.57;5.00;;;12.10;99.90;;;;;;5078097;28;20431;-39
2024/03/10 00:09:40;;;;;;;5.30;4.77;;;12.10;99.90;;;;;;5078556;28;20479;-39
2024/03/10 00:12:05;;;;;;;4.30;3.90;;;12.10;99.90;;;;;;5079100;28;20189;-36
2024/03/10 00:14:32;;;;;;;3.60;3.30;;;12.10;99.90;;;;;;5077843;28;20973;-38
2024/03/10 00:16:57;;;;;;;3.63;2.77;;;12.10;99.90;;;;;;5077267;28;20427;-40
2024/03/10 00:19:25;;;;;;;3.37;2.97;;;12.00;99.90;;;;;;5076582;28;20492;-40
2024/03/10 00:21:51;;;;;;;4.30;3.90;;;12.10;99.90;;;;;;5076091;28;20271;-37
2024/03/10 00:24:17;;;;;;;4.30;3.60;;;12.00;99.90;;;;;;5077586;28;20428;-39
2024/03/10 00:26:43;;;;;;;5.10;2.83;;;12.00;99.90;;;;;;5078307;28;20492;-38
2024/03/10 00:29:09;;;;;;;3.63;3.30;;;12.10;99.90;;;;;;5078394;28;21122;-38
2024/03/10 00:31:35;;;;;;;3.17;2.87;;;12.00;99.90;;;;;;5076875;28;20518;-37
2024/03/10 00:34:00;;;;;;;3.57;2.87;;;12.00;99.90;;;;;;5076835;28;20507;-39
2024/03/10 00:36:26;;;;;;;2.90;2.33;;;12.00;99.90;;;;;;5078641;28;20197;-39
2024/03/10 00:38:52;;;;;;;2.50;2.23;;;12.00;99.90;;;;;;5078880;28;20181;-37
2024/03/10 00:41:18;;;;;;;3.07;2.77;;;12.00;99.90;;;;;;5078770;28;20181;-38
2024/03/10 00:43:43;;;;;;;3.33;2.93;;;12.00;99.90;;;;;;5079090;28;20428;-39
2024/03/10 00:46:09;;;;;;;3.27;2.97;;;12.00;99.90;;;;;;5077443;28;20173;-38
2024/03/10 00:48:35;;;;;;;2.73;2.33;;;12.00;99.90;;;;;;5078555;28;20170;-36
2024/03/10 00:51:01;;;;;;;2.87;2.57;;;12.00;99.90;;;;;;5077576;28;20191;-40
2024/03/10 00:53:27;;;;;;;3.60;2.90;;;12.00;99.90;;;;;;5077256;28;20463;-37
2024/03/10 00:55:54;;;;;;;3.03;2.80;;;12.00;99.90;;;;;;5078374;28;20188;-39
2024/03/10 00:58:20;;;;;;;3.77;3.00;;;12.00;99.90;;;;;;5078378;28;20419;-40
2024/03/10 01:00:46;;;;;;;3.23;2.93;;;12.00;99.90;;;;;;5078259;28;20403;-40
2024/03/10 01:03:12;;;;;;;3.47;3.17;;;12.00;99.90;;;;;;5078646;28;20678;-37
2024/03/10 01:05:38;;;;;;;3.30;2.83;;;12.00;99.90;;;;;;5077625;28;20243;-39
2024/03/10 01:08:04;;;;;;;4.27;3.70;;;12.00;99.90;;;;;;5077651;28;20883;-39
2024/03/10 01:10:29;;;;;;;4.63;4.13;;;12.00;99.90;;;;;;5076574;28;20455;-38
2024/03/10 01:12:55;;;;;;;4.60;3.90;;;12.00;99.90;;;;;;5077542;28;20407;-38
2024/03/10 01:15:24;;;;;;;5.33;3.77;;;12.00;99.90;;;;;;5076813;28;20169;-38
2024/03/10 01:17:50;;;;;;;4.30;3.87;;;12.00;99.90;;;;;;5077459;28;20200;-38
2024/03/10 01:20:16;;;;;;;5.40;4.40;;;11.90;99.90;;;;;;5076687;28;20534;-38
2024/03/10 01:22:42;;;;;;;4.23;3.53;;;11.90;99.90;;;;;;5076542;28;20447;-38
2024/03/10 01:25:08;;;;;;;4.60;4.20;;;11.90;99.90;;;;;;5076044;28;20442;-39
2024/03/10 01:27:35;;;;;;;3.50;3.20;;;11.90;99.90;;;;;;5075778;28;20185;-38
2024/03/10 01:30:00;;;;;;;3.80;3.33;;;11.90;99.90;;;;;;5074251;28;20912;-38
2024/03/10 01:32:26;;;;;;;6.00;4.00;;;11.90;99.90;;;;;;5074806;28;20423;-39
2024/03/10 01:34:53;;;;;;;4.40;3.97;;;11.90;99.90;;;;;;5074977;28;20241;-37
2024/03/10 01:37:18;;;;;;;4.20;3.77;;;11.90;99.90;;;;;;5075210;28;20624;-39
2024/03/10 01:39:44;;;;;;;4.27;3.83;;;11.90;99.90;;;;;;5076428;28;20431;-38
2024/03/10 01:42:11;;;;;;;4.37;3.70;;;11.90;99.90;;;;;;5076529;28;20188;-38
2024/03/10 01:44:36;;;;;;;4.43;4.03;;;11.90;99.90;;;;;;5076374;28;20280;-37
2024/03/10 01:47:02;;;;;;;4.40;4.00;;;11.90;99.90;;;;;;5077979;28;20832;-39
2024/03/10 01:49:28;;;;;;;4.10;3.70;;;11.80;99.90;;;;;;5076923;28;20191;-38
2024/03/10 01:51:55;;;;;;;4.00;3.60;;;11.90;99.90;;;;;;5075367;28;20182;-40
2024/03/10 01:54:28;;;;;;;4.37;3.97;;;11.90;99.90;;;;;;5076602;28;20486;-39
2024/03/10 01:56:54;;;;;;;4.50;4.10;;;11.90;99.90;;;;;;5076983;28;20419;-39
2024/03/10 01:59:20;;;;;;;4.87;4.00;;;11.90;99.90;;;;;;5079297;28;20462;-38
2024/03/10 02:01:46;;;;;;;4.90;3.83;;;11.90;99.90;;;;;;5080245;28;20468;-38
2024/03/10 02:04:14;;;;;;;3.90;3.50;;;11.90;99.90;;;;;;5079539;28;20461;-37
2024/03/10 02:06:43;;;;;;;3.57;3.23;;;11.90;99.90;;;;;;5080902;28;20185;-40
2024/03/10 02:09:16;;;;;;;6.57;4.67;;;11.90;99.90;;;;;;5080251;28;20427;-38
2024/03/10 02:11:42;;;;;;;4.87;4.13;;;11.90;99.90;;;;;;5079467;28;20426;-38
2024/03/10 02:14:08;;;;;;;5.17;4.27;;;11.90;99.90;;;;;;5079144;28;20470;-38
2024/03/10 02:16:34;;;;;;;6.37;4.33;;;11.90;99.90;;;;;;5078552;28;20455;-39
2024/03/10 02:19:00;;;;;;;7.13;4.00;;;11.90;99.90;;;;;;5079741;28;20476;-37
2024/03/10 02:21:27;;;;;;;5.47;4.80;;;11.80;99.90;;;;;;5080328;28;20413;-39
2024/03/10 02:24:07;;;;;;;5.07;4.30;;;11.80;99.90;;;;;;5080925;28;20185;-39
2024/03/10 02:26:36;;;;;;;4.87;4.00;;;11.80;99.90;;;;;;5080721;28;20430;-40
2024/03/10 02:29:15;;;;;;;5.30;3.60;;;11.80;99.90;;;;;;5080690;28;20853;-38
2024/03/10 02:48:19;;;;;;;4.63;4.13;;;11.70;99.90;;;;;;5080519;28;20889;-39
2024/03/10 02:50:45;;;;;;;4.93;4.17;;;11.60;99.90;;;;;;5080879;28;20423;-36
2024/03/10 02:53:11;;;;;;;5.00;4.17;;;11.60;99.90;;;;;;5081002;28;20435;-39
2024/03/10 02:55:37;;;;;;;6.20;5.07;;;11.60;99.90;;;;;;5080804;28;20514;-36
2024/03/10 02:58:04;;;;;;;5.30;4.80;;;11.50;99.90;;;;;;5080696;28;20567;-39
2024/03/10 03:00:33;;;;;;;4.27;3.87;;;11.50;99.90;;;;;;5061530;28;20173;-38
2024/03/10 03:03:00;;;;;;;6.30;4.30;;;11.40;99.90;;;;;;5079550;28;20706;-38
2024/03/10 03:05:28;;;;;;;5.53;4.40;;;11.40;99.90;;;;;;5078369;28;20439;-37
2024/03/10 03:07:55;;;;;;;4.50;4.10;;;11.40;99.90;;;;;;5078136;28;20433;-39
2024/03/10 03:10:21;;;;;;;5.80;4.93;;;11.40;99.90;;;;;;5079872;28;20497;-37
2024/03/10 03:12:47;;;;;;;5.80;3.80;;;11.30;99.90;;;;;;5079947;28;20835;-38
2024/03/10 03:15:15;;;;;;;5.47;4.87;;;11.30;99.90;;;;;;5079497;28;20485;-38
2024/03/10 03:17:45;;;;;;;5.03;4.53;;;11.30;99.90;;;;;;5077956;28;20435;-38
2024/03/10 03:20:15;;;;;;;5.10;4.60;;;11.20;99.90;;;;;;5078492;28;20559;-40
2024/03/10 03:22:45;;;;;;;5.90;5.00;;;11.20;99.90;;;;;;5080158;28;20494;-40
2024/03/10 03:25:16;;;;;;;4.43;4.03;;;11.20;99.90;;;;;;5079582;28;20454;-39
2024/03/10 03:27:47;;;;;;;4.50;4.00;;;11.20;99.90;;;;;;5079551;28;20707;-37
2024/03/10 03:30:13;;;;;;;3.93;3.57;;;11.10;99.90;;;;;;5078394;28;20479;-40
2024/03/10 03:32:39;;;;;;;4.33;3.93;;;11.10;99.90;;;;;;5079039;28;20778;-37
2024/03/10 03:35:05;;;;;;;5.43;4.20;;;11.10;99.90;;;;;;5078461;28;20304;-37
2024/03/10 03:37:30;;;;;;;4.53;3.97;;;11.10;99.90;;;;;;5076954;28;20211;-46
2024/03/10 03:39:57;;;;;;;5.17;3.70;;;11.10;99.90;;;;;;5078184;28;20419;-47
2024/03/10 03:42:22;;;;;;;4.53;3.73;;;11.10;99.90;;;;;;5078363;28;20252;-46
2024/03/10 03:44:49;;;;;;;5.97;3.87;;;11.00;99.90;;;;;;5079437;28;20469;-46
2024/03/10 03:47:15;;;;;;;3.23;2.90;;;11.00;99.90;;;;;;5080127;28;20178;-46
2024/03/10 03:49:43;;;;;;;4.20;2.93;;;11.00;99.90;;;;;;5077818;28;20440;-47
2024/03/10 03:52:08;;;;;;;3.03;2.73;;;11.00;99.90;;;;;;5079159;28;20403;-46
2024/03/10 03:54:34;;;;;;;3.77;3.37;;;11.00;99.90;;;;;;5079500;28;20451;-46
2024/03/10 03:57:15;;;;;;;3.60;3.23;;;11.00;99.90;;;;;;5078976;28;20462;-46
2024/03/10 03:59:41;;;;;;;4.00;3.00;;;11.00;99.90;;;;;;5079154;28;20834;-46
2024/03/10 04:02:07;;;;;;;4.10;3.40;;;11.00;99.90;;;;;;5078757;28;20522;-46
2024/03/10 04:04:33;;;;;;;3.70;3.30;;;11.00;99.90;;;;;;5078947;28;20455;-45
2024/03/10 04:06:59;;;;;;;4.00;3.43;;;11.00;99.90;;;;;;5079358;28;20265;-46
2024/03/10 04:09:25;;;;;;;4.60;3.13;;;11.00;99.90;;;;;;5079443;28;20809;-46
2024/03/10 04:11:51;;;;;;;3.90;2.50;;;11.00;99.90;;;;;;5079605;28;20181;-46
2024/03/10 04:14:17;;;;;;;3.80;2.60;;;11.00;99.90;;;;;;5079354;28;20470;-46
2024/03/10 04:16:46;;;;;;;3.47;2.90;;;10.90;99.90;;;;;;5079953;28;20434;-46
2024/03/10 04:19:11;;;;;;;3.50;3.00;;;11.00;99.90;;;;;;5079192;28;20781;-46
2024/03/10 04:21:37;;;;;;;4.00;3.53;;;10.90;99.90;;;;;;5079157;28;20415;-45
2024/03/10 04:24:07;;;;;;;3.60;3.10;;;10.90;99.90;;;;;;5078942;28;20753;-46
2024/03/10 04:26:33;;;;;;;3.80;2.87;;;10.90;99.90;;;;;;5078839;28;20267;-46
2024/03/10 04:28:59;;;;;;;2.87;2.57;;;10.90;99.90;;;;;;5079513;28;20523;-46
2024/03/10 04:31:24;;;;;;;3.20;2.87;;;10.90;99.90;;;;;;5079292;28;20431;-48
2024/03/10 04:33:51;;;;;;;3.67;3.17;;;10.90;99.90;;;;;;5078085;28;20312;-46
2024/03/10 04:36:17;;;;;;;3.70;3.37;;;10.90;99.90;;;;;;5077262;28;20205;-46
2024/03/10 04:38:45;;;;;;;3.20;2.90;;;10.80;99.90;;;;;;5078328;28;20420;-47
2024/03/10 04:41:11;;;;;;;4.43;3.77;;;10.90;99.90;;;;;;5078607;28;20488;-46
2024/03/10 04:43:38;;;;;;;3.10;2.80;;;10.80;99.90;;;;;;5079073;28;20529;-46
2024/03/10 04:46:05;;;;;;;3.20;2.73;;;10.80;99.90;;;;;;5079243;28;20168;-47
2024/03/10 04:48:35;;;;;;;3.10;2.80;;;10.80;99.90;;;;;;5078957;28;20407;-46
2024/03/10 04:51:00;;;;;;;3.03;2.73;;;10.80;99.90;;;;;;5078448;28;20419;-45
2024/03/10 04:53:26;;;;;;;3.10;2.63;;;10.80;99.90;;;;;;5077840;28;20477;-46
2024/03/10 04:55:52;;;;;;;2.97;2.70;;;10.80;99.90;;;;;;5078068;28;20264;-46
2024/03/10 04:58:18;;;;;;;3.03;2.60;;;10.80;99.90;;;;;;5076372;28;20205;-46
2024/03/10 05:00:44;;;;;;;3.10;2.80;;;10.80;99.90;;;;;;5078129;28;20439;-47
2024/03/10 05:03:10;;;;;;;3.13;2.77;;;10.80;99.90;;;;;;5079079;28;20486;-46
2024/03/10 05:05:37;;;;;;;3.23;2.73;;;10.80;99.90;;;;;;5078973;28;20177;-46
2024/03/10 05:08:03;;;;;;;4.03;3.03;;;10.80;99.90;;;;;;5078617;28;20419;-46
2024/03/10 05:10:28;;;;;;;2.97;2.70;;;10.70;99.90;;;;;;5077947;28;20438;-46
2024/03/10 05:12:54;;;;;;;3.60;2.67;;;10.70;99.90;;;;;;5077616;28;20501;-46
2024/03/10 05:15:19;;;;;;;3.33;2.70;;;10.70;99.90;;;;;;5078533;28;20209;-46
2024/03/10 05:17:45;;;;;;;3.00;2.70;;;10.80;99.90;;;;;;5077869;28;20173;-46
2024/03/10 05:20:11;;;;;;;2.97;2.70;;;10.70;99.90;;;;;;5078687;28;20174;-46
2024/03/10 05:22:37;;;;;;;2.50;2.30;;;10.70;99.90;;;;;;5077667;28;20271;-47
2024/03/10 05:25:03;;;;;;;3.53;2.33;;;10.70;99.90;;;;;;5075905;28;20917;-46
2024/03/10 05:27:29;;;;;;;2.97;2.67;;;10.80;99.90;;;;;;5076574;28;20415;-46
2024/03/10 05:29:54;;;;;;;3.20;2.60;;;10.70;99.90;;;;;;5076586;28;20232;-45
2024/03/10 05:32:20;;;;;;;3.67;2.30;;;10.70;99.90;;;;;;5082418;28;20431;-46
2024/03/10 05:34:49;;;;;;;2.90;2.60;;;10.70;99.90;;;;;;5083847;28;20315;-46
2024/03/10 05:37:14;;;;;;;2.80;2.50;;;10.70;99.90;;;;;;5084078;28;20173;-46
2024/03/10 05:39:40;;;;;;;3.07;2.43;;;10.70;99.90;;;;;;5084007;28;20442;-46
2024/03/10 05:42:06;;;;;;;2.77;2.50;;;10.70;99.90;;;;;;5084810;28;20172;-46
2024/03/10 05:44:33;;;;;;;3.43;2.77;;;10.70;99.90;;;;;;5085005;28;20255;-46
2024/03/10 05:46:59;;;;;;;2.70;2.17;;;10.70;99.90;;;;;;5084716;28;20517;-46
2024/03/10 05:49:26;;;;;;;3.40;2.40;;;10.70;99.90;;;;;;5084316;28;20871;-45
2024/03/10 05:51:53;;;;;;;2.83;2.53;;;10.60;99.90;;;;;;5083251;28;20510;-46
2024/03/10 05:54:22;;;;;;;2.93;2.53;;;10.60;99.90;;;;;;5083800;28;20531;-46
2024/03/10 05:56:48;;;;;;;2.63;2.40;;;10.60;99.90;;;;;;5083292;28;20434;-45
2024/03/10 05:59:13;;;;;;;3.53;2.50;;;10.60;99.90;;;;;;5082553;28;20707;-46
2024/03/10 06:01:39;;;;;;;2.50;2.27;;;10.60;99.90;;;;;;5082292;28;20188;-46
2024/03/10 06:04:06;;;;;;;2.70;2.40;;;10.60;99.90;;;;;;5083058;28;20240;-46
2024/03/10 06:06:31;;;;;;;3.17;2.80;;;10.50;99.90;;;;;;5083852;28;20709;-46
2024/03/10 06:08:57;;;;;;;3.47;2.63;;;10.50;99.90;;;;;;5084209;28;20441;-45
2024/03/10 06:11:23;;;;;;;3.90;3.30;;;10.50;99.90;;;;;;5084132;28;20278;-45
2024/03/10 06:13:49;;;;;;;3.70;3.13;;;10.50;99.90;;;;;;5084867;28;20231;-46
2024/03/10 06:16:15;;;;;;;3.30;2.43;;;10.50;99.90;;;;;;5083342;28;20184;-46
2024/03/10 06:26:56;;;;;;;3.07;2.80;;;10.50;99.90;;;;;;5082006;28;20426;-46
2024/03/10 06:29:23;;;;;;;4.33;2.23;;;10.50;99.90;;;;;;5081394;28;20470;-46
2024/03/10 06:31:50;;;;;;;2.87;2.37;;;10.50;99.90;;;;;;5081329;28;20320;-46
2024/03/10 06:34:15;;;;;;;2.40;2.20;;;10.50;99.90;;;;;;5083887;28;20475;-44
2024/03/10 06:36:41;;;;;;;3.00;2.70;;;10.50;99.90;;;;;;5084894;28;20479;-46
2024/03/10 06:39:08;;;;;;;2.63;2.43;;;10.50;99.90;;;;;;5083615;28;20246;-47
2024/03/10 06:41:34;;;;;;;3.50;2.83;;;10.60;99.90;;;;;;5083046;28;20175;-46
2024/03/10 06:44:00;;;;;;;4.27;2.77;;;10.60;99.90;;;;;;5080231;28;20518;-46
2024/03/10 06:46:26;;;;;;;3.30;2.97;;;10.60;99.90;;;;;;5080931;28;20431;-46
2024/03/10 06:48:52;;;;;;;3.97;3.37;;;10.60;99.90;;;;;;5079438;28;20861;-45
2024/03/10 06:51:21;;;;;;;3.70;3.13;;;10.60;99.90;;;;;;5078966;28;20476;-45
2024/03/10 06:53:47;;;;;;;3.60;3.20;;;10.60;99.90;;;;;;5078728;28;20199;-46
2024/03/10 06:56:14;;;;;;;3.57;3.27;;;10.60;99.90;;;;;;5078424;28;20415;-46
2024/03/10 06:58:42;;;;;;;3.53;3.03;;;10.60;99.90;;;;;;5078927;28;20206;-46
2024/03/10 07:01:08;;;;;;;3.40;3.10;;;10.60;99.90;;;;;;5078918;28;20688;-46
2024/03/10 07:03:35;;;;;;;2.80;2.53;;;10.60;99.90;;;;;;5078808;28;20423;-46
2024/03/10 07:06:01;;;;;;;3.00;2.70;;;10.60;99.90;;;;;;5077892;28;20192;-46
2024/03/10 07:08:27;;;;;;;2.50;2.30;;;10.60;99.90;;;;;;5078756;28;20423;-46
2024/03/10 07:10:53;;;;;;;3.00;2.70;;;10.70;99.90;;;;;;5078929;28;20443;-46
2024/03/10 07:13:18;;;;;;;3.10;2.30;;;10.70;99.90;;;;;;5079475;28;20698;-47
2024/03/10 07:15:46;;;;;;;2.33;2.13;;;10.70;99.90;;;;;;5079500;28;20173;-46
2024/03/10 07:18:12;;;;;;;3.53;2.93;;;10.80;99.90;;;;;;5080678;28;20183;-46
2024/03/10 07:20:39;;;;;;;2.90;2.20;;;10.80;99.90;;;;;;5080597;28;20432;-47
2024/03/10 07:23:05;;;;;;;3.30;1.90;;;10.90;99.90;;;;;;5079950;28;20869;-46
2024/03/10 07:25:30;;;;;;;2.30;2.10;;;11.00;99.90;;;;;;5080082;28;20432;-46
2024/03/10 07:27:56;;;;;;;2.93;2.13;;;11.00;99.90;;;;;;5079866;28;20419;-46
2024/03/10 07:30:22;;;;;;;2.70;1.93;;;11.10;99.90;;;;;;5080264;28;20173;-46
2024/03/10 07:32:48;;;;;;;2.23;2.03;;;11.20;99.90;;;;;;5078469;28;20446;-46
2024/03/10 07:35:14;;;;;;;2.07;1.77;;;11.30;99.90;;;;;;5079285;28;20224;-47
2024/03/10 07:37:41;;;;;;;2.20;1.90;;;11.40;99.90;;;;;;5078798;28;20184;-45
2024/03/10 07:40:15;;;;;;;1.97;1.50;;;11.50;99.90;;;;;;5077950;28;20488;-47
2024/03/10 07:42:42;;;;;;;2.20;2.00;;;11.70;99.90;;;;;;5078295;28;20415;-46
2024/03/10 07:45:09;;;;;;;2.17;1.97;;;11.80;99.90;;;;;;5079352;28;20518;-46
2024/03/10 07:47:39;;;;;;;2.10;1.90;;;12.00;99.90;;;;;;5079174;28;20439;-47
2024/03/10 07:50:06;;;;;;;2.03;1.73;;;12.20;99.90;;;;;;5079588;28;20484;-47
2024/03/10 07:52:32;;;;;;;2.30;1.83;;;12.40;99.90;;;;;;5079568;28;20481;-47
2024/03/10 07:54:58;;;;;;;2.47;2.10;;;12.60;99.90;;;;;;5078696;28;20451;-46
2024/03/10 07:57:23;;;;;;;2.97;2.00;;;13.00;99.90;;;;;;5079038;28;20491;-46
2024/03/10 07:59:50;;;;;;;2.50;2.13;;;13.30;99.90;;;;;;5077298;28;20189;-47
2024/03/10 08:02:15;;;;;;;1.80;1.60;;;13.70;99.90;;;;;;5077274;28;20177;-47
2024/03/10 08:04:41;;;;;;;2.10;1.67;;;13.90;99.90;;;;;;5077833;28;20442;-47
2024/03/10 08:07:07;;;;;;;2.13;1.83;;;14.10;99.90;;;;;;5078954;28;20191;-46
2024/03/10 08:09:33;;;;;;;3.70;2.53;;;14.30;99.90;;;;;;5077794;28;20443;-46
2024/03/10 08:11:59;;;;;;;2.13;1.77;;;14.40;99.90;;;;;;5077256;28;20427;-46
2024/03/10 08:14:24;;;;;;;2.77;2.20;;;14.40;99.90;;;;;;5075697;28;20217;-46
2024/03/10 08:16:50;;;;;;;2.13;1.80;;;14.60;99.90;;;;;;5077844;28;20181;-54
2024/03/10 08:19:16;;;;;;;2.80;2.00;;;14.60;99.90;;;;;;5077964;28;20305;-47
2024/03/10 08:21:41;;;;;;;2.60;2.20;;;14.70;99.90;;;;;;5095840;28;20257;-46
2024/03/10 08:24:09;;;;;;;2.27;1.73;;;14.80;99.90;;;;;;5098250;28;20199;-46
2024/03/10 08:26:35;;;;;;;2.00;1.60;;;14.90;99.90;;;;;;5080486;28;20278;-47
2024/03/10 08:29:02;;;;;;;2.10;1.90;;;14.90;99.90;;;;;;5099403;28;20466;-46
2024/03/10 08:31:27;;;;;;;3.07;2.40;;;15.00;99.90;;;;;;5099325;28;20448;-46
2024/03/10 08:33:53;;;;;;;2.47;1.90;;;15.00;99.90;;;;;;5081455;28;20557;-48
2024/03/10 08:36:19;;;;;;;3.77;3.00;;;15.10;99.90;;;;;;5099244;28;20518;-47
2024/03/10 08:38:45;;;;;;;3.47;3.10;;;15.10;99.90;;;;;;5098262;28;20290;-47
2024/03/10 08:41:11;;;;;;;3.67;3.03;;;15.20;99.90;;;;;;5097544;28;20434;-47
2024/03/10 08:43:36;;;;;;;3.33;3.00;;;15.20;99.90;;;;;;5096547;28;20604;-47
2024/03/10 08:46:02;;;;;;;3.43;2.77;;;15.20;99.90;;;;;;5097730;28;20463;-47
2024/03/10 08:48:28;;;;;;;3.60;2.40;;;15.30;99.90;;;;;;5097627;28;20546;-47
2024/03/10 08:50:54;;;;;;;2.67;2.47;;;15.30;99.90;;;;;;5096626;28;20594;-47
2024/03/10 08:53:20;;;;;;;1.93;1.73;;;15.30;99.90;;;;;;5097215;28;20480;-46
2024/03/10 08:55:45;;;;;;;2.63;1.93;;;15.40;99.90;;;;;;5097176;28;20185;-47
2024/03/10 08:58:12;;;;;;;2.90;2.17;;;15.50;99.90;;;;;;5097835;28;20567;-45
2024/03/10 09:00:38;;;;;;;2.30;1.70;;;15.50;99.90;;;;;;5099113;28;20543;-47
2024/03/10 09:03:04;;;;;;;1.90;1.67;;;15.60;99.90;;;;;;5098600;28;20529;-47
2024/03/10 09:05:30;;;;;;;2.40;2.00;;;15.70;99.90;;;;;;5099140;28;20462;-47
2024/03/10 09:07:57;;;;;;;1.80;1.57;;;15.80;99.90;;;;;;5080551;28;20442;-47
2024/03/10 09:10:25;;;;;;;2.70;1.80;;;16.00;99.90;;;;;;5098229;28;20441;-47
2024/03/10 09:12:51;;;;;;;2.30;2.07;;;16.30;99.90;;;;;;5098224;28;20410;-46
2024/03/10 09:15:18;;;;;;;2.00;1.80;;;16.80;99.90;;;;;;5095202;28;20470;-47
2024/03/10 09:17:47;;;;;;;2.00;1.70;;;17.40;99.90;;;;;;5096535;28;20603;-47
2024/03/10 09:20:13;;;;;;;2.90;2.33;;;17.80;99.90;;;;;;5077572;28;20438;-47
2024/03/10 09:22:43;;;;;;;2.73;1.90;;;18.20;99.90;;;;;;5096732;28;20431;-47
2024/03/10 09:25:20;;;;;;;2.83;2.10;;;18.60;99.90;;;;;;5095089;28;20863;-51
2024/03/10 09:27:47;;;;;;;2.40;2.20;;;18.90;99.90;;;;;;5079796;28;20461;-47
2024/03/10 09:30:13;;;;;;;1.83;1.57;;;19.20;99.90;;;;;;5096360;28;20489;-47
2024/03/10 09:32:39;;;;;;;1.90;1.50;;;19.40;99.90;;;;;;5095625;28;20437;-47
2024/03/10 09:35:05;;;;;;;2.00;1.70;;;19.50;99.90;;;;;;5096587;28;20231;-46
2024/03/10 09:37:32;;;;;;;1.83;1.63;;;19.50;99.90;;;;;;5097495;28;20424;-47
2024/03/10 09:39:57;;;;;;;2.30;2.03;;;19.40;99.90;;;;;;5096837;28;20630;-47
2024/03/10 09:42:24;;;;;;;2.07;1.60;;;19.30;99.90;;;;;;5096472;28;20410;-46
2024/03/10 09:44:52;;;;;;;2.00;1.70;;;19.10;99.90;;;;;;5078371;28;20473;-47
2024/03/10 09:47:18;;;;;;;1.67;1.43;;;19.10;99.90;;;;;;5094475;28;20525;-46
2024/03/10 09:49:45;;;;;;;114.77;36.83;;;19.10;99.90;;;;;;5076565;28;20533;-47
2024/03/10 09:52:10;;;;;;;40.13;14.10;;;19.30;99.90;;;;;;5094617;28;20515;-45
2024/03/10 09:54:37;;;;;;;22.63;8.60;;;19.60;99.90;;;;;;5095717;28;20733;-45
2024/03/10 09:57:05;;;;;;;19.23;5.70;;;20.00;99.90;;;;;;5095509;28;20457;-46
2024/03/10 09:59:42;;;;;;;11.77;5.23;;;20.30;99.90;;;;;;5091907;28;20430;-43
2024/03/10 10:02:17;;;;;;;17.47;4.27;;;20.60;99.90;;;;;;5094233;28;20421;-45
2024/03/10 10:04:56;;;;;;;9.10;4.27;;;20.80;99.90;;;;;;5077647;28;20426;-46
2024/03/10 10:07:24;;;;;;;6.90;3.43;;;20.90;99.90;;;;;;5095305;28;20608;-43
2024/03/10 10:09:57;;;;;;;9.03;2.93;;;21.10;99.90;;;;;;5078161;28;20435;-44
2024/03/10 10:12:23;;;;;;;7.53;2.90;;;21.20;99.90;;;;;;5094946;28;20502;-44
2024/03/10 10:14:50;;;;;;;7.63;2.40;;;21.30;99.90;;;;;;5094415;28;20619;-46
2024/03/10 10:17:17;;;;;;;8.57;2.43;;;21.40;99.90;;;;;;5096746;28;20203;-43
2024/03/10 10:19:43;;;;;;;7.13;2.50;;;21.40;99.90;;;;;;5100349;28;20681;-49
2024/03/10 10:22:09;;;;;;;9.17;2.30;;;21.50;99.90;;;;;;5099363;28;20683;-44
2024/03/10 10:24:34;;;;;;;5.77;2.10;;;21.60;99.90;;;;;;5081956;28;20222;-44
2024/03/10 10:27:03;;;;;;;5.63;2.27;;;21.60;99.90;;;;;;5081466;28;20197;-46
2024/03/10 10:29:30;;;;;;;5.80;1.80;;;21.60;99.90;;;;;;5098445;28;20232;-46
2024/03/10 10:32:00;;;;;;;3.70;1.93;;;21.70;99.90;;;;;;5097715;28;20430;-45
2024/03/10 10:34:26;;;;;;;1.93;1.40;;;21.70;99.90;;;;;;5097879;28;20493;-47
2024/03/10 10:36:55;;;;;;;3.13;2.00;;;21.70;99.90;;;;;;5097117;28;20411;-45
2024/03/10 10:39:29;;;;;;;2.37;1.43;;;21.70;99.90;;;;;;5097072;28;20502;-45
2024/03/10 10:41:56;;;;;;;3.60;2.20;;;21.70;99.90;;;;;;5096109;28;20712;-44
2024/03/10 10:44:26;;;;;;;3.60;1.40;;;21.60;99.90;;;;;;5095477;28;20521;-46
2024/03/10 10:46:52;;;;;;;1.90;1.40;;;21.60;99.90;;;;;;5096058;28;20608;-44
2024/03/10 10:49:19;;;;;;;2.73;1.53;;;21.60;99.90;;;;;;5097633;28;20461;-45
2024/03/10 10:51:50;;;;;;;1.93;1.40;;;21.60;99.90;;;;;;5097876;28;20177;-46
2024/03/10 10:54:19;;;;;;;2.53;1.50;;;21.60;99.90;;;;;;5080557;28;20891;-47
2024/03/10 10:56:55;;;;;;;1.80;1.33;;;21.70;99.90;;;;;;5099045;28;20662;-46
2024/03/10 10:59:24;;;;;;;2.10;1.40;;;21.80;99.90;;;;;;5099680;28;20422;-45
2024/03/10 11:02:05;;;;;;;3.10;1.80;;;21.80;99.90;;;;;;5097865;28;20708;-48
2024/03/10 11:04:32;;;;;;;2.10;1.63;;;22.00;99.90;;;;;;5098213;28;20776;-45
2024/03/10 11:06:58;;;;;;;1.87;1.27;;;22.10;99.90;;;;;;5098455;28;20419;-48
2024/03/10 11:09:28;;;;;;;2.43;1.57;;;22.30;99.90;;;;;;5098945;28;20414;-46
2024/03/10 11:11:54;;;;;;;2.13;1.40;;;22.40;99.90;;;;;;5098644;28;20441;-44
2024/03/10 11:14:21;;;;;;;2.03;1.43;;;22.50;99.90;;;;;;5098640;28;20477;-46
2024/03/10 11:16:47;;;;;;;2.07;1.53;;;22.50;99.90;;;;;;5080260;28;20462;-48
2024/03/10 11:19:17;;;;;;;2.00;1.70;;;22.60;99.90;;;;;;5098316;28;20909;-44
2024/03/10 11:21:47;;;;;;;2.43;1.57;;;22.60;99.90;;;;;;5098535;28;20259;-45
2024/03/10 11:24:25;;;;;;;1.70;1.60;;;22.70;99.90;;;;;;5098712;28;20426;-46
2024/03/10 11:27:32;;;;;;;4.13;1.50;;;22.70;99.90;;;;;;5080447;28;20549;-46
2024/03/10 11:29:58;;;;;;;1.77;1.63;;;22.70;99.90;;;;;;4996439;28;20769;-43
2024/03/10 11:32:32;;;;;;;2.27;1.90;;;22.60;99.90;;;;;;4996917;28;20421;-45
2024/03/10 11:34:59;;;;;;;3.30;2.00;;;22.30;99.90;;;;;;5050706;28;20651;-42
2024/03/10 11:37:25;;;;;;;3.37;1.87;;;22.00;99.90;;;;;;5097998;28;20510;-43
2024/03/10 11:39:51;;;;;;;2.67;1.67;;;21.90;99.90;;;;;;5098982;28;20509;-47
2024/03/10 11:42:18;;;;;;;3.40;2.00;;;21.70;99.90;;;;;;5080478;28;20413;-43
2024/03/10 11:44:46;;;;;;;5.37;1.90;;;21.40;99.90;;;;;;5080976;28;20179;-44
2024/03/10 11:47:11;;;;;;;3.47;1.80;;;21.20;99.90;;;;;;5097794;28;20843;-42
2024/03/10 11:49:37;;;;;;;2.33;2.03;;;21.10;99.90;;;;;;5098271;28;20536;-42
2024/03/10 11:52:06;;;;;;;2.67;1.97;;;20.90;99.90;;;;;;5078163;28;20199;-43
2024/03/10 11:54:32;;;;;;;2.13;1.93;;;20.80;99.90;;;;;;5077675;28;20466;-46
2024/03/10 11:56:59;;;;;;;3.47;2.03;;;20.80;99.90;;;;;;5075752;28;20496;-44
2024/03/10 11:59:25;;;;;;;1.93;1.67;;;20.90;99.90;;;;;;5060063;28;20264;-42
2024/03/10 12:01:51;;;;;;;2.47;2.27;;;21.00;99.90;;;;;;5077447;28;20455;-45
2024/03/10 12:04:19;;;;;;;5.63;2.00;;;21.10;99.90;;;;;;5061345;28;20469;-43
2024/03/10 12:06:46;;;;;;;2.63;2.20;;;21.10;99.90;;;;;;5057099;28;20182;-43
2024/03/10 12:09:21;;;;;;;2.40;1.77;;;21.10;99.90;;;;;;5076728;28;20573;-42
2024/03/10 12:11:46;;;;;;;2.23;2.00;;;21.10;99.90;;;;;;5077335;28;20780;-44
2024/03/10 12:14:12;;;;;;;2.50;2.10;;;21.00;99.90;;;;;;5077267;28;20598;-44
2024/03/10 12:16:47;;;;;;;1.70;1.50;;;21.00;99.90;;;;;;5053493;28;20259;-46
2024/03/10 12:19:13;;;;;;;3.20;2.50;;;20.90;99.90;;;;;;5055637;28;20182;-45
2024/03/10 12:21:39;;;;;;;3.60;3.30;;;20.80;99.90;;;;;;5036887;28;20413;-44
2024/03/10 12:24:08;;;;;;;5.00;4.60;;;20.70;99.90;;;;;;5056686;28;20486;-43
2024/03/10 12:26:33;;;;;;;4.70;4.30;;;20.50;99.90;;;;;;5038849;28;20197;-45
2024/03/10 12:28:59;;;;;;;4.33;3.93;;;20.40;99.90;;;;;;5044812;28;20553;-43
2024/03/10 12:31:27;;;;;;;5.10;4.60;;;20.20;99.90;;;;;;5056323;28;20197;-43
2024/03/10 12:33:53;;;;;;;4.87;4.47;;;20.10;99.90;;;;;;5056603;28;20201;-46
2024/03/10 12:36:20;;;;;;;3.50;3.20;;;19.90;99.90;;;;;;5057872;28;20554;-42
2024/03/10 12:38:46;;;;;;;5.27;3.40;;;19.70;99.90;;;;;;5056940;28;20458;-44
2024/03/10 12:41:13;;;;;;;4.67;2.67;;;19.60;99.90;;;;;;5055385;28;20520;-45
2024/03/10 12:43:44;;;;;;;5.90;2.80;;;19.60;99.90;;;;;;5055468;28;20461;-44
2024/03/10 12:46:15;;;;;;;4.47;3.10;;;19.60;99.90;;;;;;5054943;28;20423;-42
2024/03/10 12:48:41;;;;;;;4.40;2.80;;;19.70;99.90;;;;;;5056000;28;20442;-43
2024/03/10 12:51:09;;;;;;;4.50;2.60;;;19.70;99.90;;;;;;5055057;28;20778;-43
2024/03/10 12:53:35;;;;;;;4.33;3.00;;;19.80;99.90;;;;;;5055741;28;20439;-44
2024/03/10 12:56:03;;;;;;;3.80;2.70;;;19.90;99.90;;;;;;5054383;28;20428;-45
2024/03/10 12:58:28;;;;;;;6.43;4.30;;;20.00;99.90;;;;;;5053517;28;20634;-43
2024/03/10 13:00:54;;;;;;;4.33;3.17;;;20.00;99.90;;;;;;5052501;28;20416;-43
2024/03/10 13:03:20;;;;;;;9.00;5.27;;;20.00;99.90;;;;;;5053570;28;20164;-43
2024/03/10 13:05:46;;;;;;;8.53;5.77;;;20.10;99.90;;;;;;5053092;28;20443;-45
2024/03/10 13:08:12;;;;;;;10.23;7.03;;;20.00;99.90;;;;;;5054121;28;20186;-42
2024/03/10 13:10:39;;;;;;;9.17;6.10;;;19.90;99.90;;;;;;5054500;28;20178;-43